Time,TemperatureF,DewpointF,PressureIn,WindDirection,WindDirectionDegrees,WindSpeedMPH,WindSpeedGustMPH,Humidity,HourlyPrecipIn,Conditions,Clouds,dailyrainin,SoftwareType,DateUTC
2017-07-21 00:01:00,80.4,74.8,29.98,SSW,211,0.0,0.0,83,0.00,,,0.00,Wunderground v.1.15,2017-07-21 04:01:00,
2017-07-21 00:31:00,80.1,74.5,29.98,SSW,211,0.0,0.0,83,0.00,,,0.00,Wunderground v.1.15,2017-07-21 04:31:00,
2017-07-21 01:01:00,78.9,74.0,29.97,SSW,212,0.0,0.0,85,0.00,,,0.00,Wunderground v.1.15,2017-07-21 05:01:00,
2017-07-21 01:31:00,78.6,74.1,29.97,South,183,0.0,0.0,86,0.00,,,0.00,Wunderground v.1.15,2017-07-21 05:31:00,
2017-07-21 02:01:00,78.7,74.2,29.97,SSE,160,0.0,0.0,86,0.00,,,0.00,Wunderground v.1.15,2017-07-21 06:01:00,
2017-07-21 02:31:00,77.8,74.0,29.96,SE,138,0.0,0.0,88,0.00,,,0.00,Wunderground v.1.15,2017-07-21 06:31:00,
2017-07-21 03:01:00,77.5,74.0,29.95,SE,138,0.0,0.0,89,0.00,,,0.00,Wunderground v.1.15,2017-07-21 07:01:00,
2017-07-21 03:31:00,77.3,74.1,29.95,South,173,0.0,0.0,90,0.00,,,0.00,Wunderground v.1.15,2017-07-21 07:31:00,
2017-07-21 04:01:00,77.2,74.0,29.94,South,173,0.0,0.0,90,0.00,,,0.00,Wunderground v.1.15,2017-07-21 08:01:00,
2017-07-21 04:31:00,77.0,74.2,29.94,South,173,0.0,0.0,91,0.00,,,0.00,Wunderground v.1.15,2017-07-21 08:31:00,
2017-07-21 05:01:00,76.6,73.8,29.95,South,173,0.0,0.0,91,0.00,,,0.00,Wunderground v.1.15,2017-07-21 09:01:00,
2017-07-21 05:31:00,76.6,74.1,29.94,SE,143,0.0,0.0,92,0.00,,,0.00,Wunderground v.1.15,2017-07-21 09:31:00,
2017-07-21 06:01:00,76.7,73.9,29.95,SE,143,0.0,0.0,91,0.00,,,0.00,Wunderground v.1.15,2017-07-21 10:01:00,
2017-07-21 06:31:00,76.1,73.6,29.95,SE,143,0.0,0.0,92,0.00,,,0.00,Wunderground v.1.15,2017-07-21 10:31:00,
2017-07-21 07:01:00,76.1,73.9,29.96,North,354,0.0,0.0,93,0.00,,,0.00,Wunderground v.1.15,2017-07-21 11:01:00,
2017-07-21 07:31:00,76.7,74.5,29.97,North,359,0.0,0.0,93,0.00,,,0.00,Wunderground v.1.15,2017-07-21 11:31:00,
2017-07-21 08:01:00,77.6,74.8,29.98,North,359,0.0,0.0,91,0.00,,,0.00,Wunderground v.1.15,2017-07-21 12:01:00,
2017-07-21 08:31:00,73.9,71.7,30.03,NNE,14,1.0,1.0,93,0.12,,,0.47,Wunderground v.1.15,2017-07-21 12:31:00,
2017-07-21 09:01:00,72.4,71.2,30.02,NW,312,0.0,0.0,96,0.05,,,0.50,Wunderground v.1.15,2017-07-21 13:01:00,
2017-07-21 09:31:00,72.1,71.2,30.03,North,8,0.0,0.0,97,0.00,,,0.51,Wunderground v.1.15,2017-07-21 13:31:00,
2017-07-21 10:01:00,72.2,71.3,30.01,SE,131,0.0,0.0,97,0.00,,,0.52,Wunderground v.1.15,2017-07-21 14:01:00,
2017-07-21 10:31:00,72.2,71.3,30.00,South,176,0.0,0.0,97,0.00,,,0.52,Wunderground v.1.15,2017-07-21 14:31:00,
2017-07-21 11:01:00,72.7,72.1,29.98,SSE,164,1.0,1.0,98,0.00,,,0.52,Wunderground v.1.15,2017-07-21 15:01:00,
2017-07-21 11:31:00,73.1,72.5,30.00,SE,140,0.0,0.0,98,0.00,,,0.52,Wunderground v.1.15,2017-07-21 15:31:00,
2017-07-21 12:01:00,73.8,73.2,30.00,SSE,152,0.0,0.0,98,0.00,,,0.52,Wunderground v.1.15,2017-07-21 16:01:00,
2017-07-21 12:31:00,75.6,74.7,30.00,SSE,155,2.0,2.0,97,0.00,,,0.52,Wunderground v.1.15,2017-07-21 16:31:00,
2017-07-21 13:01:00,78.1,75.9,29.99,SSE,155,1.0,1.0,93,0.00,,,0.52,Wunderground v.1.15,2017-07-21 17:01:00,
2017-07-21 13:31:00,80.1,76.6,29.99,West,280,1.0,1.0,89,0.00,,,0.52,Wunderground v.1.15,2017-07-21 17:31:00,
2017-07-21 14:01:00,83.6,77.5,29.99,SSE,151,0.0,0.0,82,0.00,,,0.52,Wunderground v.1.15,2017-07-21 18:01:00,
2017-07-21 14:31:00,85.0,77.0,29.98,South,174,0.0,0.0,77,0.00,,,0.52,Wunderground v.1.15,2017-07-21 18:31:00,
2017-07-21 15:01:00,86.1,78.4,29.97,SSW,211,1.0,1.0,78,0.00,,,0.52,Wunderground v.1.15,2017-07-21 19:01:00,
2017-07-21 15:31:00,87.3,78.4,29.97,SSW,201,0.0,1.0,75,0.00,,,0.52,Wunderground v.1.15,2017-07-21 19:31:00,
2017-07-21 16:01:00,87.0,78.9,29.96,NNW,328,0.0,0.0,77,0.00,,,0.52,Wunderground v.1.15,2017-07-21 20:01:00,
2017-07-21 16:31:00,86.9,79.2,29.95,North,8,1.0,1.0,78,0.00,,,0.52,Wunderground v.1.15,2017-07-21 20:31:00,
2017-07-21 17:01:00,87.1,80.6,29.94,ESE,106,0.0,0.0,81,0.00,,,0.52,Wunderground v.1.15,2017-07-21 21:01:00,
2017-07-21 17:30:00,87.1,80.2,29.92,NE,37,0.0,0.0,80,0.00,,,0.52,Wunderground v.1.15,2017-07-21 21:30:00,
2017-07-21 18:01:00,86.8,81.0,29.91,NW,314,0.0,0.0,83,0.00,,,0.52,Wunderground v.1.15,2017-07-21 22:01:00,
2017-07-21 18:30:00,86.3,80.9,29.91,WNW,293,0.0,0.0,84,0.00,,,0.52,Wunderground v.1.15,2017-07-21 22:30:00,
2017-07-21 19:00:00,85.9,80.5,29.90,SE,135,0.0,0.0,84,0.00,,,0.52,Wunderground v.1.15,2017-07-21 23:00:00,
2017-07-21 19:30:00,85.6,80.9,29.90,SE,143,0.0,0.0,86,0.00,,,0.52,Wunderground v.1.15,2017-07-21 23:30:00,
2017-07-21 20:01:00,82.5,75.3,29.91,SSW,197,1.0,1.0,79,0.00,,,0.52,Wunderground v.1.15,2017-07-22 00:01:00,
2017-07-21 20:31:00,81.1,74.0,29.91,SE,141,1.0,1.0,79,0.00,,,0.52,Wunderground v.1.15,2017-07-22 00:31:00,
2017-07-21 21:01:00,80.7,73.6,29.93,SSE,160,0.0,0.0,79,0.00,,,0.52,Wunderground v.1.15,2017-07-22 01:01:00,